sensor_id;sensor_type;location;lat;lon;timestamp;P1;durP1;ratioP1;P2;durP2;ratioP2
7033;SDS011;3558;53.176;10.412;2023-08-30T02:47:03;1.30;;;0.80;;
7033;SDS011;3558;53.176;10.412;2023-08-30T02:49:28;2.60;;;0.90;;
7033;SDS011;3558;53.176;10.412;2023-08-30T02:51:54;1.17;;;0.73;;
7033;SDS011;3558;53.176;10.412;2023-08-30T02:54:20;0.83;;;0.77;;
7033;SDS011;3558;53.176;10.412;2023-08-30T02:56:47;1.00;;;0.70;;
7033;SDS011;3558;53.176;10.412;2023-08-30T02:59:13;0.90;;;0.70;;
7033;SDS011;3558;53.176;10.412;2023-08-30T03:01:38;1.60;;;0.70;;
7033;SDS011;3558;53.176;10.412;2023-08-30T03:04:04;2.10;;;0.70;;
7033;SDS011;3558;53.176;10.412;2023-08-30T03:06:32;0.70;;;0.60;;
7033;SDS011;3558;53.176;10.412;2023-08-30T03:08:57;1.50;;;1.00;;
7033;SDS011;3558;53.176;10.412;2023-08-30T03:11:23;1.50;;;0.83;;
7033;SDS011;3558;53.176;10.412;2023-08-30T03:13:49;0.97;;;0.80;;
7033;SDS011;3558;53.176;10.412;2023-08-30T03:16:15;0.80;;;0.60;;
7033;SDS011;3558;53.176;10.412;2023-08-30T03:18:41;0.80;;;0.70;;
7033;SDS011;3558;53.176;10.412;2023-08-30T03:21:08;1.00;;;0.77;;
7033;SDS011;3558;53.176;10.412;2023-08-30T03:23:33;0.80;;;0.70;;
7033;SDS011;3558;53.176;10.412;2023-08-30T03:26:06;1.10;;;0.70;;
7033;SDS011;3558;53.176;10.412;2023-08-30T03:28:33;1.00;;;0.73;;
7033;SDS011;3558;53.176;10.412;2023-08-30T03:30:58;0.83;;;0.70;;
7033;SDS011;3558;53.176;10.412;2023-08-30T03:33:24;1.40;;;0.70;;
7033;SDS011;3558;53.176;10.412;2023-08-30T03:35:49;0.80;;;0.60;;
7033;SDS011;3558;53.176;10.412;2023-08-30T03:38:15;1.37;;;0.70;;
7033;SDS011;3558;53.176;10.412;2023-08-30T03:40:40;0.93;;;0.70;;
7033;SDS011;3558;53.176;10.412;2023-08-30T03:43:06;1.17;;;0.80;;
7033;SDS011;3558;53.176;10.412;2023-08-30T03:45:34;0.63;;;0.60;;
7033;SDS011;3558;53.176;10.412;2023-08-30T03:48:03;0.77;;;0.63;;
7033;SDS011;3558;53.176;10.412;2023-08-30T03:50:29;0.60;;;0.50;;
7033;SDS011;3558;53.176;10.412;2023-08-30T03:52:54;0.83;;;0.70;;
7033;SDS011;3558;53.176;10.412;2023-08-30T03:55:20;1.70;;;0.87;;
7033;SDS011;3558;53.176;10.412;2023-08-30T03:57:47;0.83;;;0.70;;
7033;SDS011;3558;53.176;10.412;2023-08-30T04:00:13;0.90;;;0.70;;
7033;SDS011;3558;53.176;10.412;2023-08-30T04:02:38;0.70;;;0.70;;
7033;SDS011;3558;53.176;10.412;2023-08-30T04:05:04;0.77;;;0.77;;
7033;SDS011;3558;53.176;10.412;2023-08-30T04:07:33;1.40;;;0.63;;
7033;SDS011;3558;53.176;10.412;2023-08-30T04:10:00;1.00;;;0.80;;
7033;SDS011;3558;53.176;10.412;2023-08-30T04:12:27;1.10;;;0.80;;
7033;SDS011;3558;53.176;10.412;2023-08-30T04:14:53;0.80;;;0.70;;
7033;SDS011;3558;53.176;10.412;2023-08-30T04:17:19;1.37;;;0.87;;
7033;SDS011;3558;53.176;10.412;2023-08-30T04:19:44;2.03;;;0.90;;
7033;SDS011;3558;53.176;10.412;2023-08-30T04:22:09;1.10;;;0.67;;
7033;SDS011;3558;53.176;10.412;2023-08-30T04:24:35;0.90;;;0.77;;
7033;SDS011;3558;53.176;10.412;2023-08-30T04:27:00;1.77;;;0.80;;
7033;SDS011;3558;53.176;10.412;2023-08-30T04:29:26;1.93;;;0.77;;
7033;SDS011;3558;53.176;10.412;2023-08-30T04:31:51;1.13;;;0.70;;
7033;SDS011;3558;53.176;10.412;2023-08-30T04:34:17;1.13;;;0.80;;
7033;SDS011;3558;53.176;10.412;2023-08-30T04:36:43;0.70;;;0.63;;
7033;SDS011;3558;53.176;10.412;2023-08-30T04:39:09;1.00;;;0.90;;
7033;SDS011;3558;53.176;10.412;2023-08-30T04:41:35;1.47;;;0.60;;
7033;SDS011;3558;53.176;10.412;2023-08-30T04:44:00;1.40;;;0.77;;
7033;SDS011;3558;53.176;10.412;2023-08-30T04:46:26;0.70;;;0.67;;
7033;SDS011;3558;53.176;10.412;2023-08-30T04:48:51;0.83;;;0.70;;
7033;SDS011;3558;53.176;10.412;2023-08-30T04:51:16;0.77;;;0.60;;
7033;SDS011;3558;53.176;10.412;2023-08-30T04:53:42;0.70;;;0.60;;
7033;SDS011;3558;53.176;10.412;2023-08-30T04:56:11;1.13;;;0.80;;
7033;SDS011;3558;53.176;10.412;2023-08-30T04:58:37;2.17;;;0.70;;
7033;SDS011;3558;53.176;10.412;2023-08-30T05:01:04;0.60;;;0.60;;
7033;SDS011;3558;53.176;10.412;2023-08-30T05:03:30;0.73;;;0.73;;
7033;SDS011;3558;53.176;10.412;2023-08-30T05:05:55;1.03;;;0.60;;
7033;SDS011;3558;53.176;10.412;2023-08-30T05:08:21;1.33;;;0.80;;
7033;SDS011;3558;53.176;10.412;2023-08-30T05:10:46;0.70;;;0.70;;
7033;SDS011;3558;53.176;10.412;2023-08-30T05:13:12;0.63;;;0.60;;
7033;SDS011;3558;53.176;10.412;2023-08-30T05:15:40;1.00;;;0.57;;
7033;SDS011;3558;53.176;10.412;2023-08-30T05:18:06;0.70;;;0.60;;
7033;SDS011;3558;53.176;10.412;2023-08-30T05:20:31;1.47;;;0.60;;
7033;SDS011;3558;53.176;10.412;2023-08-30T05:22:57;1.03;;;0.60;;
7033;SDS011;3558;53.176;10.412;2023-08-30T05:25:22;1.00;;;0.63;;
7033;SDS011;3558;53.176;10.412;2023-08-30T05:27:47;0.87;;;0.57;;
7033;SDS011;3558;53.176;10.412;2023-08-30T05:30:13;0.70;;;0.60;;
7033;SDS011;3558;53.176;10.412;2023-08-30T05:32:39;1.30;;;0.90;;
7033;SDS011;3558;53.176;10.412;2023-08-30T05:35:04;0.80;;;0.70;;
7033;SDS011;3558;53.176;10.412;2023-08-30T05:37:30;0.90;;;0.70;;
7033;SDS011;3558;53.176;10.412;2023-08-30T05:39:56;1.00;;;0.70;;
7033;SDS011;3558;53.176;10.412;2023-08-30T05:42:22;1.30;;;0.90;;
7033;SDS011;3558;53.176;10.412;2023-08-30T05:44:48;1.07;;;0.80;;
7033;SDS011;3558;53.176;10.412;2023-08-30T05:47:13;0.97;;;0.87;;
7033;SDS011;3558;53.176;10.412;2023-08-30T05:49:40;1.93;;;0.90;;
7033;SDS011;3558;53.176;10.412;2023-08-30T05:52:06;1.23;;;0.90;;
7033;SDS011;3558;53.176;10.412;2023-08-30T05:54:31;1.00;;;0.70;;
7033;SDS011;3558;53.176;10.412;2023-08-30T05:56:58;1.53;;;0.70;;
7033;SDS011;3558;53.176;10.412;2023-08-30T05:59:24;0.80;;;0.70;;
7033;SDS011;3558;53.176;10.412;2023-08-30T06:01:49;1.23;;;0.80;;
7033;SDS011;3558;53.176;10.412;2023-08-30T06:04:15;1.23;;;0.80;;
7033;SDS011;3558;53.176;10.412;2023-08-30T06:06:41;1.10;;;0.80;;
7033;SDS011;3558;53.176;10.412;2023-08-30T06:09:06;1.20;;;0.80;;
7033;SDS011;3558;53.176;10.412;2023-08-30T06:11:32;0.93;;;0.70;;
7033;SDS011;3558;53.176;10.412;2023-08-30T06:13:57;1.23;;;0.70;;
7033;SDS011;3558;53.176;10.412;2023-08-30T06:16:25;0.93;;;0.70;;
7033;SDS011;3558;53.176;10.412;2023-08-30T06:18:50;1.13;;;0.73;;
7033;SDS011;3558;53.176;10.412;2023-08-30T06:21:16;0.80;;;0.70;;
7033;SDS011;3558;53.176;10.412;2023-08-30T06:23:41;1.50;;;0.83;;
7033;SDS011;3558;53.176;10.412;2023-08-30T06:26:07;0.80;;;0.70;;
7033;SDS011;3558;53.176;10.412;2023-08-30T06:28:32;1.10;;;0.80;;
7033;SDS011;3558;53.176;10.412;2023-08-30T06:30:58;0.90;;;0.80;;
7033;SDS011;3558;53.176;10.412;2023-08-30T06:33:23;1.57;;;0.70;;
7033;SDS011;3558;53.176;10.412;2023-08-30T06:35:49;0.80;;;0.80;;
7033;SDS011;3558;53.176;10.412;2023-08-30T06:38:18;1.00;;;0.70;;
7033;SDS011;3558;53.176;10.412;2023-08-30T06:40:45;1.13;;;0.70;;
7033;SDS011;3558;53.176;10.412;2023-08-30T06:43:11;1.23;;;0.73;;
7033;SDS011;3558;53.176;10.412;2023-08-30T06:45:38;1.10;;;0.90;;
7033;SDS011;3558;53.176;10.412;2023-08-30T06:48:05;1.10;;;0.70;;
7033;SDS011;3558;53.176;10.412;2023-08-30T06:50:31;1.47;;;0.80;;
7033;SDS011;3558;53.176;10.412;2023-08-30T06:52:57;1.10;;;0.70;;
7033;SDS011;3558;53.176;10.412;2023-08-30T06:55:22;1.33;;;0.60;;
7033;SDS011;3558;53.176;10.412;2023-08-30T06:57:48;0.60;;;0.60;;
7033;SDS011;3558;53.176;10.412;2023-08-30T07:00:16;0.73;;;0.60;;
7033;SDS011;3558;53.176;10.412;2023-08-30T07:02:42;0.73;;;0.60;;
7033;SDS011;3558;53.176;10.412;2023-08-30T07:05:14;0.60;;;0.50;;
7033;SDS011;3558;53.176;10.412;2023-08-30T07:07:39;1.50;;;0.80;;
7033;SDS011;3558;53.176;10.412;2023-08-30T07:10:05;1.43;;;0.73;;
7033;SDS011;3558;53.176;10.412;2023-08-30T07:12:31;0.90;;;0.80;;
7033;SDS011;3558;53.176;10.412;2023-08-30T07:14:57;1.07;;;0.90;;
7033;SDS011;3558;53.176;10.412;2023-08-30T07:17:22;1.63;;;0.73;;
7033;SDS011;3558;53.176;10.412;2023-08-30T07:19:48;1.00;;;0.73;;
7033;SDS011;3558;53.176;10.412;2023-08-30T07:22:14;1.17;;;0.70;;
7033;SDS011;3558;53.176;10.412;2023-08-30T07:24:41;0.67;;;0.63;;
7033;SDS011;3558;53.176;10.412;2023-08-30T07:27:09;0.77;;;0.70;;
7033;SDS011;3558;53.176;10.412;2023-08-30T07:29:36;0.95;;;0.70;;
7033;SDS011;3558;53.176;10.412;2023-08-30T07:32:01;0.70;;;0.60;;
7033;SDS011;3558;53.176;10.412;2023-08-30T07:34:27;1.00;;;0.70;;
7033;SDS011;3558;53.176;10.412;2023-08-30T07:36:53;0.77;;;0.63;;
7033;SDS011;3558;53.176;10.412;2023-08-30T07:39:19;0.80;;;0.70;;
7033;SDS011;3558;53.176;10.412;2023-08-30T07:41:44;1.03;;;0.83;;
7033;SDS011;3558;53.176;10.412;2023-08-30T07:44:10;0.50;;;0.50;;
7033;SDS011;3558;53.176;10.412;2023-08-30T07:46:35;1.30;;;0.80;;
7033;SDS011;3558;53.176;10.412;2023-08-30T07:49:01;0.90;;;0.80;;
7033;SDS011;3558;53.176;10.412;2023-08-30T07:51:27;1.00;;;0.83;;
7033;SDS011;3558;53.176;10.412;2023-08-30T07:53:53;0.80;;;0.70;;
7033;SDS011;3558;53.176;10.412;2023-08-30T07:56:18;1.10;;;0.90;;
7033;SDS011;3558;53.176;10.412;2023-08-30T07:58:43;0.93;;;0.80;;
7033;SDS011;3558;53.176;10.412;2023-08-30T08:01:09;1.23;;;0.83;;
7033;SDS011;3558;53.176;10.412;2023-08-30T08:03:34;1.23;;;0.80;;
7033;SDS011;3558;53.176;10.412;2023-08-30T08:06:00;1.00;;;0.70;;
7033;SDS011;3558;53.176;10.412;2023-08-30T08:08:25;1.10;;;0.90;;
7033;SDS011;3558;53.176;10.412;2023-08-30T08:10:51;1.20;;;0.90;;
7033;SDS011;3558;53.176;10.412;2023-08-30T08:13:16;1.00;;;0.83;;
7033;SDS011;3558;53.176;10.412;2023-08-30T08:15:42;1.30;;;0.87;;
7033;SDS011;3558;53.176;10.412;2023-08-30T08:18:09;1.20;;;0.90;;
7033;SDS011;3558;53.176;10.412;2023-08-30T08:20:34;1.10;;;0.87;;
7033;SDS011;3558;53.176;10.412;2023-08-30T08:23:00;0.98;;;0.85;;
7033;SDS011;3558;53.176;10.412;2023-08-30T08:25:25;0.80;;;0.70;;
7033;SDS011;3558;53.176;10.412;2023-08-30T08:27:51;0.80;;;0.80;;
7033;SDS011;3558;53.176;10.412;2023-08-30T08:30:16;1.37;;;0.90;;
7033;SDS011;3558;53.176;10.412;2023-08-30T08:32:45;1.40;;;0.98;;
7033;SDS011;3558;53.176;10.412;2023-08-30T08:35:12;1.10;;;0.90;;
7033;SDS011;3558;53.176;10.412;2023-08-30T08:37:38;0.80;;;0.80;;
7033;SDS011;3558;53.176;10.412;2023-08-30T08:40:04;1.10;;;0.90;;
7033;SDS011;3558;53.176;10.412;2023-08-30T08:42:34;1.00;;;0.88;;
7033;SDS011;3558;53.176;10.412;2023-08-30T08:45:01;0.83;;;0.77;;
7033;SDS011;3558;53.176;10.412;2023-08-30T08:47:29;1.30;;;0.90;;
7033;SDS011;3558;53.176;10.412;2023-08-30T08:49:55;1.00;;;0.90;;
7033;SDS011;3558;53.176;10.412;2023-08-30T08:52:21;0.90;;;0.70;;
7033;SDS011;3558;53.176;10.412;2023-08-30T08:54:48;1.55;;;0.90;;
7033;SDS011;3558;53.176;10.412;2023-08-30T08:57:14;1.00;;;0.90;;
7033;SDS011;3558;53.176;10.412;2023-08-30T08:59:40;0.95;;;0.77;;
7033;SDS011;3558;53.176;10.412;2023-08-30T09:02:06;1.10;;;0.90;;
7033;SDS011;3558;53.176;10.412;2023-08-30T09:04:32;1.48;;;1.10;;
7033;SDS011;3558;53.176;10.412;2023-08-30T09:06:58;1.23;;;0.90;;
7033;SDS011;3558;53.176;10.412;2023-08-30T09:09:25;1.40;;;1.00;;
7033;SDS011;3558;53.176;10.412;2023-08-30T09:11:51;1.27;;;1.00;;
7033;SDS011;3558;53.176;10.412;2023-08-30T09:14:17;1.00;;;0.80;;
7033;SDS011;3558;53.176;10.412;2023-08-30T09:16:43;0.80;;;0.77;;
7033;SDS011;3558;53.176;10.412;2023-08-30T09:19:19;1.10;;;0.90;;
7033;SDS011;3558;53.176;10.412;2023-08-30T09:21:55;1.00;;;0.90;;
7033;SDS011;3558;53.176;10.412;2023-08-30T09:24:22;0.98;;;0.88;;
7033;SDS011;3558;53.176;10.412;2023-08-30T09:26:48;1.02;;;0.82;;
7033;SDS011;3558;53.176;10.412;2023-08-30T09:29:18;1.13;;;1.00;;
7033;SDS011;3558;53.176;10.412;2023-08-30T09:31:44;1.30;;;1.00;;
7033;SDS011;3558;53.176;10.412;2023-08-30T09:34:10;1.40;;;0.98;;
7033;SDS011;3558;53.176;10.412;2023-08-30T09:36:40;1.40;;;1.00;;
7033;SDS011;3558;53.176;10.412;2023-08-30T09:39:09;1.00;;;0.90;;
7033;SDS011;3558;53.176;10.412;2023-08-30T09:41:40;1.10;;;1.00;;
7033;SDS011;3558;53.176;10.412;2023-08-30T09:44:10;1.27;;;1.00;;
7033;SDS011;3558;53.176;10.412;2023-08-30T09:46:41;1.10;;;0.90;;
7033;SDS011;3558;53.176;10.412;2023-08-30T09:49:08;1.33;;;1.10;;
7033;SDS011;3558;53.176;10.412;2023-08-30T09:51:34;1.23;;;0.90;;
7033;SDS011;3558;53.176;10.412;2023-08-30T09:54:03;1.23;;;0.88;;
7033;SDS011;3558;53.176;10.412;2023-08-30T09:56:30;1.00;;;0.90;;
7033;SDS011;3558;53.176;10.412;2023-08-30T09:58:57;1.58;;;1.00;;
7033;SDS011;3558;53.176;10.412;2023-08-30T10:01:25;1.38;;;1.02;;
7033;SDS011;3558;53.176;10.412;2023-08-30T10:03:52;2.15;;;1.10;;
7033;SDS011;3558;53.176;10.412;2023-08-30T10:06:19;1.10;;;0.90;;
7033;SDS011;3558;53.176;10.412;2023-08-30T10:08:47;1.70;;;1.00;;
7033;SDS011;3558;53.176;10.412;2023-08-30T10:11:16;1.20;;;1.10;;
7033;SDS011;3558;53.176;10.412;2023-08-30T10:13:43;1.17;;;1.07;;
7033;SDS011;3558;53.176;10.412;2023-08-30T10:16:11;1.33;;;1.00;;
7033;SDS011;3558;53.176;10.412;2023-08-30T10:18:41;1.02;;;0.90;;
7033;SDS011;3558;53.176;10.412;2023-08-30T10:21:10;1.30;;;1.00;;
7033;SDS011;3558;53.176;10.412;2023-08-30T10:23:37;1.15;;;1.05;;
7033;SDS011;3558;53.176;10.412;2023-08-30T10:26:04;1.38;;;1.20;;
7033;SDS011;3558;53.176;10.412;2023-08-30T10:28:32;1.63;;;1.20;;
7033;SDS011;3558;53.176;10.412;2023-08-30T10:30:59;1.40;;;1.02;;
7033;SDS011;3558;53.176;10.412;2023-08-30T10:33:24;1.40;;;1.20;;
7033;SDS011;3558;53.176;10.412;2023-08-30T10:35:51;1.50;;;1.20;;
7033;SDS011;3558;53.176;10.412;2023-08-30T10:38:26;1.67;;;1.30;;
7033;SDS011;3558;53.176;10.412;2023-08-30T10:40:53;1.80;;;1.10;;
7033;SDS011;3558;53.176;10.412;2023-08-30T10:43:28;2.08;;;1.30;;
7033;SDS011;3558;53.176;10.412;2023-08-30T10:46:01;1.70;;;1.20;;
7033;SDS011;3558;53.176;10.412;2023-08-30T10:48:35;1.70;;;1.10;;
7033;SDS011;3558;53.176;10.412;2023-08-30T10:51:01;1.45;;;1.13;;
7033;SDS011;3558;53.176;10.412;2023-08-30T10:53:29;1.73;;;1.10;;
7033;SDS011;3558;53.176;10.412;2023-08-30T10:56:11;1.20;;;1.10;;
7033;SDS011;3558;53.176;10.412;2023-08-30T10:58:42;1.42;;;1.08;;
7033;SDS011;3558;53.176;10.412;2023-08-30T11:01:09;1.45;;;1.23;;
7033;SDS011;3558;53.176;10.412;2023-08-30T11:03:38;1.35;;;1.13;;
7033;SDS011;3558;53.176;10.412;2023-08-30T11:06:04;1.60;;;1.25;;
7033;SDS011;3558;53.176;10.412;2023-08-30T11:08:29;1.20;;;1.10;;
7033;SDS011;3558;53.176;10.412;2023-08-30T11:11:04;1.50;;;1.10;;
7033;SDS011;3558;53.176;10.412;2023-08-30T11:13:31;1.60;;;1.20;;
7033;SDS011;3558;53.176;10.412;2023-08-30T11:16:03;1.25;;;1.15;;
7033;SDS011;3558;53.176;10.412;2023-08-30T11:18:29;1.40;;;1.30;;
7033;SDS011;3558;53.176;10.412;2023-08-30T11:21:01;2.00;;;1.40;;
7033;SDS011;3558;53.176;10.412;2023-08-30T11:23:27;1.42;;;1.23;;
7033;SDS011;3558;53.176;10.412;2023-08-30T11:25:53;1.67;;;1.33;;
7033;SDS011;3558;53.176;10.412;2023-08-30T11:28:23;1.52;;;1.40;;
7033;SDS011;3558;53.176;10.412;2023-08-30T11:30:49;2.25;;;1.50;;
7033;SDS011;3558;53.176;10.412;2023-08-30T11:33:17;1.50;;;1.40;;
7033;SDS011;3558;53.176;10.412;2023-08-30T11:35:45;1.50;;;1.40;;
7033;SDS011;3558;53.176;10.412;2023-08-30T11:38:14;1.73;;;1.50;;
7033;SDS011;3558;53.176;10.412;2023-08-30T11:40:40;1.40;;;1.27;;
7033;SDS011;3558;53.176;10.412;2023-08-30T11:43:06;1.50;;;1.40;;
7033;SDS011;3558;53.176;10.412;2023-08-30T11:45:32;1.65;;;1.42;;
7033;SDS011;3558;53.176;10.412;2023-08-30T11:48:00;1.70;;;1.50;;
7033;SDS011;3558;53.176;10.412;2023-08-30T11:50:26;1.75;;;1.65;;
7033;SDS011;3558;53.176;10.412;2023-08-30T11:52:52;1.55;;;1.40;;
7033;SDS011;3558;53.176;10.412;2023-08-30T11:55:18;1.70;;;1.40;;
7033;SDS011;3558;53.176;10.412;2023-08-30T11:57:48;1.55;;;1.40;;
7033;SDS011;3558;53.176;10.412;2023-08-30T12:00:14;1.70;;;1.40;;
7033;SDS011;3558;53.176;10.412;2023-08-30T12:02:40;1.60;;;1.50;;
7033;SDS011;3558;53.176;10.412;2023-08-30T12:05:06;1.60;;;1.48;;
7033;SDS011;3558;53.176;10.412;2023-08-30T12:07:36;2.30;;;1.57;;
7033;SDS011;3558;53.176;10.412;2023-08-30T12:10:10;1.40;;;1.30;;
7033;SDS011;3558;53.176;10.412;2023-08-30T12:12:36;2.17;;;1.33;;
7033;SDS011;3558;53.176;10.412;2023-08-30T12:15:07;1.75;;;1.40;;
7033;SDS011;3558;53.176;10.412;2023-08-30T12:17:37;1.90;;;1.63;;
7033;SDS011;3558;53.176;10.412;2023-08-30T12:20:02;1.70;;;1.50;;
7033;SDS011;3558;53.176;10.412;2023-08-30T12:22:41;1.20;;;1.10;;
7033;SDS011;3558;53.176;10.412;2023-08-30T12:25:19;1.63;;;1.35;;
7033;SDS011;3558;53.176;10.412;2023-08-30T12:27:45;2.20;;;1.33;;
7033;SDS011;3558;53.176;10.412;2023-08-30T12:30:12;1.65;;;1.30;;
7033;SDS011;3558;53.176;10.412;2023-08-30T12:32:39;1.45;;;1.30;;
7033;SDS011;3558;53.176;10.412;2023-08-30T12:35:04;1.30;;;1.20;;
7033;SDS011;3558;53.176;10.412;2023-08-30T12:37:30;1.55;;;1.25;;
7033;SDS011;3558;53.176;10.412;2023-08-30T12:39:56;1.40;;;1.20;;
7033;SDS011;3558;53.176;10.412;2023-08-30T12:42:21;1.73;;;1.30;;
7033;SDS011;3558;53.176;10.412;2023-08-30T12:44:47;1.40;;;1.20;;
7033;SDS011;3558;53.176;10.412;2023-08-30T12:47:13;1.50;;;1.10;;
7033;SDS011;3558;53.176;10.412;2023-08-30T12:49:39;2.07;;;1.30;;
7033;SDS011;3558;53.176;10.412;2023-08-30T12:52:05;1.48;;;1.13;;
7033;SDS011;3558;53.176;10.412;2023-08-30T12:54:31;1.70;;;1.23;;
7033;SDS011;3558;53.176;10.412;2023-08-30T12:56:56;1.73;;;1.20;;
7033;SDS011;3558;53.176;10.412;2023-08-30T12:59:22;2.05;;;1.10;;
7033;SDS011;3558;53.176;10.412;2023-08-30T13:01:47;1.42;;;1.30;;
7033;SDS011;3558;53.176;10.412;2023-08-30T13:04:12;1.20;;;1.10;;
7033;SDS011;3558;53.176;10.412;2023-08-30T13:06:38;1.50;;;1.30;;
7033;SDS011;3558;53.176;10.412;2023-08-30T13:09:03;1.40;;;1.23;;
7033;SDS011;3558;53.176;10.412;2023-08-30T13:11:29;1.63;;;1.27;;
7033;SDS011;3558;53.176;10.412;2023-08-30T13:13:57;1.58;;;1.17;;
7033;SDS011;3558;53.176;10.412;2023-08-30T13:16:23;1.97;;;1.20;;
7033;SDS011;3558;53.176;10.412;2023-08-30T13:18:49;1.50;;;1.10;;
7033;SDS011;3558;53.176;10.412;2023-08-30T13:21:14;1.50;;;1.20;;
7033;SDS011;3558;53.176;10.412;2023-08-30T13:23:40;1.87;;;1.27;;
7033;SDS011;3558;53.176;10.412;2023-08-30T13:26:05;1.40;;;1.20;;
7033;SDS011;3558;53.176;10.412;2023-08-30T13:28:31;1.43;;;1.10;;
7033;SDS011;3558;53.176;10.412;2023-08-30T13:30:56;2.00;;;1.20;;
7033;SDS011;3558;53.176;10.412;2023-08-30T13:33:22;1.73;;;1.13;;
7033;SDS011;3558;53.176;10.412;2023-08-30T13:35:50;2.40;;;1.30;;
7033;SDS011;3558;53.176;10.412;2023-08-30T13:38:17;1.38;;;1.20;;
7033;SDS011;3558;53.176;10.412;2023-08-30T13:40:43;2.08;;;1.25;;
7033;SDS011;3558;53.176;10.412;2023-08-30T13:43:08;1.63;;;1.30;;
7033;SDS011;3558;53.176;10.412;2023-08-30T13:45:34;2.00;;;1.33;;
7033;SDS011;3558;53.176;10.412;2023-08-30T13:47:59;1.87;;;1.33;;
7033;SDS011;3558;53.176;10.412;2023-08-30T13:50:25;1.85;;;1.35;;
7033;SDS011;3558;53.176;10.412;2023-08-30T13:52:55;1.38;;;1.00;;
7033;SDS011;3558;53.176;10.412;2023-08-30T13:55:21;2.05;;;1.30;;
7033;SDS011;3558;53.176;10.412;2023-08-30T13:57:47;2.22;;;1.20;;
7033;SDS011;3558;53.176;10.412;2023-08-30T14:00:12;1.27;;;1.17;;
7033;SDS011;3558;53.176;10.412;2023-08-30T14:02:38;1.38;;;1.23;;
7033;SDS011;3558;53.176;10.412;2023-08-30T14:05:04;1.57;;;1.40;;
7033;SDS011;3558;53.176;10.412;2023-08-30T14:07:30;1.73;;;1.20;;
7033;SDS011;3558;53.176;10.412;2023-08-30T14:09:56;1.65;;;1.20;;
7033;SDS011;3558;53.176;10.412;2023-08-30T14:12:22;1.60;;;1.30;;
7033;SDS011;3558;53.176;10.412;2023-08-30T14:14:48;1.40;;;1.10;;
7033;SDS011;3558;53.176;10.412;2023-08-30T14:17:13;1.63;;;1.33;;
7033;SDS011;3558;53.176;10.412;2023-08-30T14:19:39;1.50;;;1.13;;
7033;SDS011;3558;53.176;10.412;2023-08-30T14:22:04;1.43;;;1.20;;
7033;SDS011;3558;53.176;10.412;2023-08-30T14:24:31;1.60;;;1.10;;
7033;SDS011;3558;53.176;10.412;2023-08-30T14:26:57;1.85;;;1.40;;
7033;SDS011;3558;53.176;10.412;2023-08-30T14:29:23;1.60;;;1.27;;
7033;SDS011;3558;53.176;10.412;2023-08-30T14:31:48;1.50;;;1.30;;
7033;SDS011;3558;53.176;10.412;2023-08-30T14:34:14;1.57;;;1.47;;
7033;SDS011;3558;53.176;10.412;2023-08-30T14:36:39;1.60;;;1.50;;
7033;SDS011;3558;53.176;10.412;2023-08-30T14:39:07;1.50;;;1.40;;
7033;SDS011;3558;53.176;10.412;2023-08-30T14:41:33;1.57;;;1.47;;
7033;SDS011;3558;53.176;10.412;2023-08-30T14:44:01;1.42;;;1.33;;
7033;SDS011;3558;53.176;10.412;2023-08-30T14:46:28;1.70;;;1.43;;
7033;SDS011;3558;53.176;10.412;2023-08-30T14:48:54;1.83;;;1.48;;
7033;SDS011;3558;53.176;10.412;2023-08-30T14:51:19;1.90;;;1.40;;
7033;SDS011;3558;53.176;10.412;2023-08-30T14:53:45;1.27;;;1.17;;
7033;SDS011;3558;53.176;10.412;2023-08-30T14:56:10;1.30;;;1.20;;
7033;SDS011;3558;53.176;10.412;2023-08-30T14:58:36;1.63;;;1.42;;
7033;SDS011;3558;53.176;10.412;2023-08-30T15:01:02;1.42;;;1.30;;
7033;SDS011;3558;53.176;10.412;2023-08-30T15:03:28;2.08;;;1.50;;
7033;SDS011;3558;53.176;10.412;2023-08-30T15:05:54;1.50;;;1.40;;
7033;SDS011;3558;53.176;10.412;2023-08-30T15:08:21;1.92;;;1.30;;
7033;SDS011;3558;53.176;10.412;2023-08-30T15:10:47;1.40;;;1.20;;
7033;SDS011;3558;53.176;10.412;2023-08-30T15:13:12;1.43;;;1.33;;
7033;SDS011;3558;53.176;10.412;2023-08-30T15:15:38;1.67;;;1.40;;
7033;SDS011;3558;53.176;10.412;2023-08-30T15:18:04;1.40;;;1.30;;
7033;SDS011;3558;53.176;10.412;2023-08-30T15:20:29;1.33;;;1.23;;
7033;SDS011;3558;53.176;10.412;2023-08-30T15:22:55;1.48;;;1.30;;
7033;SDS011;3558;53.176;10.412;2023-08-30T15:25:23;1.50;;;1.30;;
7033;SDS011;3558;53.176;10.412;2023-08-30T15:27:49;1.67;;;1.30;;
7033;SDS011;3558;53.176;10.412;2023-08-30T15:30:14;1.30;;;1.20;;
7033;SDS011;3558;53.176;10.412;2023-08-30T15:32:40;1.75;;;1.33;;
7033;SDS011;3558;53.176;10.412;2023-08-30T15:35:06;1.52;;;1.30;;
7033;SDS011;3558;53.176;10.412;2023-08-30T15:37:33;2.30;;;1.20;;
7033;SDS011;3558;53.176;10.412;2023-08-30T15:39:59;1.57;;;1.23;;
7033;SDS011;3558;53.176;10.412;2023-08-30T15:42:32;1.52;;;1.38;;
7033;SDS011;3558;53.176;10.412;2023-08-30T15:45:00;1.98;;;1.27;;
7033;SDS011;3558;53.176;10.412;2023-08-30T15:47:26;1.77;;;1.42;;
7033;SDS011;3558;53.176;10.412;2023-08-30T15:49:52;1.80;;;1.40;;
7033;SDS011;3558;53.176;10.412;2023-08-30T15:52:17;1.73;;;1.23;;
7033;SDS011;3558;53.176;10.412;2023-08-30T15:54:44;1.98;;;1.25;;
7033;SDS011;3558;53.176;10.412;2023-08-30T15:57:09;1.60;;;1.30;;
7033;SDS011;3558;53.176;10.412;2023-08-30T15:59:35;1.30;;;1.20;;
7033;SDS011;3558;53.176;10.412;2023-08-30T16:02:00;1.30;;;1.20;;
7033;SDS011;3558;53.176;10.412;2023-08-30T16:04:26;1.27;;;1.17;;
7033;SDS011;3558;53.176;10.412;2023-08-30T16:06:51;1.60;;;1.40;;
7033;SDS011;3558;53.176;10.412;2023-08-30T16:09:17;1.40;;;1.30;;
7033;SDS011;3558;53.176;10.412;2023-08-30T16:11:42;1.50;;;1.30;;
7033;SDS011;3558;53.176;10.412;2023-08-30T16:14:08;1.80;;;1.30;;
7033;SDS011;3558;53.176;10.412;2023-08-30T16:16:35;1.37;;;1.27;;
7033;SDS011;3558;53.176;10.412;2023-08-30T16:19:00;1.63;;;1.50;;
7033;SDS011;3558;53.176;10.412;2023-08-30T16:21:26;1.47;;;1.37;;
7033;SDS011;3558;53.176;10.412;2023-08-30T16:23:52;1.95;;;1.60;;
7033;SDS011;3558;53.176;10.412;2023-08-30T16:26:17;2.20;;;1.58;;
7033;SDS011;3558;53.176;10.412;2023-08-30T16:28:43;2.10;;;1.60;;
7033;SDS011;3558;53.176;10.412;2023-08-30T16:31:10;1.90;;;1.70;;
7033;SDS011;3558;53.176;10.412;2023-08-30T16:33:37;1.60;;;1.50;;
7033;SDS011;3558;53.176;10.412;2023-08-30T16:36:04;1.98;;;1.63;;
7033;SDS011;3558;53.176;10.412;2023-08-30T16:38:30;2.30;;;1.70;;
7033;SDS011;3558;53.176;10.412;2023-08-30T16:40:57;1.75;;;1.55;;
7033;SDS011;3558;53.176;10.412;2023-08-30T16:43:28;2.00;;;1.70;;
7033;SDS011;3558;53.176;10.412;2023-08-30T16:45:54;2.08;;;1.67;;
7033;SDS011;3558;53.176;10.412;2023-08-30T16:48:19;2.00;;;1.70;;
7033;SDS011;3558;53.176;10.412;2023-08-30T16:50:45;2.03;;;1.73;;
7033;SDS011;3558;53.176;10.412;2023-08-30T16:53:10;2.27;;;1.70;;
7033;SDS011;3558;53.176;10.412;2023-08-30T16:55:36;3.00;;;1.60;;
7033;SDS011;3558;53.176;10.412;2023-08-30T16:58:01;2.53;;;1.70;;
7033;SDS011;3558;53.176;10.412;2023-08-30T17:00:27;2.30;;;1.53;;
7033;SDS011;3558;53.176;10.412;2023-08-30T17:02:52;1.73;;;1.63;;
7033;SDS011;3558;53.176;10.412;2023-08-30T17:05:18;2.33;;;1.45;;
7033;SDS011;3558;53.176;10.412;2023-08-30T17:07:44;2.33;;;1.73;;
7033;SDS011;3558;53.176;10.412;2023-08-30T17:10:10;3.87;;;1.80;;
7033;SDS011;3558;53.176;10.412;2023-08-30T17:12:35;2.50;;;1.80;;
7033;SDS011;3558;53.176;10.412;2023-08-30T17:15:01;1.73;;;1.57;;
7033;SDS011;3558;53.176;10.412;2023-08-30T17:17:27;2.15;;;1.60;;
7033;SDS011;3558;53.176;10.412;2023-08-30T17:19:53;2.53;;;1.80;;
7033;SDS011;3558;53.176;10.412;2023-08-30T17:22:18;2.10;;;1.80;;
7033;SDS011;3558;53.176;10.412;2023-08-30T17:24:44;2.17;;;1.80;;
7033;SDS011;3558;53.176;10.412;2023-08-30T17:27:09;2.50;;;1.73;;
7033;SDS011;3558;53.176;10.412;2023-08-30T17:29:35;2.55;;;2.00;;
7033;SDS011;3558;53.176;10.412;2023-08-30T17:32:00;3.00;;;1.90;;
7033;SDS011;3558;53.176;10.412;2023-08-30T17:34:26;4.38;;;1.85;;
7033;SDS011;3558;53.176;10.412;2023-08-30T17:36:51;2.97;;;1.90;;
7033;SDS011;3558;53.176;10.412;2023-08-30T17:39:22;3.37;;;2.17;;
7033;SDS011;3558;53.176;10.412;2023-08-30T17:41:50;2.80;;;2.20;;